Kea — 9HA2207 — position and weather

sailwx.info

Track history (hours):
 
Tides and Currents Weather Stations Pressure Air Temp Water Temp Dewpoint Dewpoint Depression Visibility Wind Speed Wind Dir Waves Ship Positions

Kea

Last reported at 2017-Dec-08 20:18 UTC. Time now 2017-Dec-18 06:51 UTC.
Position N 35°23' W 025°30'.
Warning: this ship's position is 9 days out of date.

Length 225 m; draft 9.1 m.

Type: Cargo ship. MMSI: 248150000.

Date/timePositionNaut miles runAvg speedWind from/ knotsBaromVisibWave heightAir tempDewpointWater temp
2017-Dec-08 20:18N 35°23' W 025°30'311.3
2017-Dec-08 20:00N 35°23' W 025°26'611.3
2017-Dec-08 19:30N 35°23' W 025°19'611.6
2017-Dec-08 19:00N 35°22' W 025°12'611.6
2017-Dec-08 18:28N 35°22' W 025°04'611.3
2017-Dec-08 17:58N 35°22' W 024°57'811.3
2017-Dec-08 17:14N 35°22' W 024°47'2611.2
2017-Dec-08 14:54N 35°24' W 024°15'1311.2
2017-Dec-08 13:44N 35°27' W 023°59'911.6
2017-Dec-08 12:59N 35°28' W 023°49'  
2017-Dec-01 08:30N 36°35' E 014°02'612.1
2017-Dec-01 08:00N 36°32' E 014°09'912.0
2017-Dec-01 07:16N 36°30' E 014°20'312.5
2017-Dec-01 07:00N 36°29' E 014°24'612.8
2017-Dec-01 06:30N 36°28' E 014°32'612.5
2017-Dec-01 06:00N 36°28' E 014°39'  
Track history (hours):
 
Tides and Currents Weather Stations Pressure Air Temp Water Temp Dewpoint Dewpoint Depression Visibility Wind Speed Wind Dir Waves Ship Positions

Kea

Last reported at 2017-Dec-08 20:18 UTC. Time now 2017-Dec-18 06:51 UTC.
Position N 35°23' W 025°30'.
Warning: this ship's position is 9 days out of date.

Length 225 m; draft 9.1 m.

Type: Cargo ship. MMSI: 248150000.

Date/timePositionNaut miles runAvg speedWind from/ knotsBaromVisibWave heightAir tempDewpointWater temp
2017-Dec-08 20:18N 35°23' W 025°30'311.3
2017-Dec-08 20:00N 35°23' W 025°26'611.3
2017-Dec-08 19:30N 35°23' W 025°19'611.6
2017-Dec-08 19:00N 35°22' W 025°12'611.6
2017-Dec-08 18:28N 35°22' W 025°04'611.3
2017-Dec-08 17:58N 35°22' W 024°57'811.3
2017-Dec-08 17:14N 35°22' W 024°47'2611.2
2017-Dec-08 14:54N 35°24' W 024°15'1311.2
2017-Dec-08 13:44N 35°27' W 023°59'911.6
2017-Dec-08 12:59N 35°28' W 023°49'  
2017-Dec-01 08:30N 36°35' E 014°02'612.1
2017-Dec-01 08:00N 36°32' E 014°09'912.0
2017-Dec-01 07:16N 36°30' E 014°20'312.5
2017-Dec-01 07:00N 36°29' E 014°24'612.8
2017-Dec-01 06:30N 36°28' E 014°32'612.5
2017-Dec-01 06:00N 36°28' E 014°39'  

Dump ship's entire track history